Time;durP1;ratioP1;P1;durP2;ratioP2;P2;SDS_P1;SDS_P2;PMS_P1;PMS_P2;Temp;Humidity;BMP_temperature;BMP_pressure;BME280_temperature;BME280_humidity;BME280_pressure;Samples;Min_cycle;Max_cycle;Signal;HPM_P1;HPM_P2
2023/03/19 00:00:18;;;;;;;4.22;1.90;;;;;;;;;;4975984;28;20029;-74
2023/03/19 00:02:49;;;;;;;8.55;2.08;;;;;;;;;;4971595;28;20130;-74
2023/03/19 00:05:16;;;;;;;10.73;2.25;;;;;;;;;;4972576;28;20058;-76
2023/03/19 00:07:42;;;;;;;6.10;2.25;;;;;;;;;;4974775;28;20041;-75
2023/03/19 00:10:08;;;;;;;7.22;2.75;;;;;;;;;;4973288;28;20463;-74
2023/03/19 00:12:35;;;;;;;5.03;1.75;;;;;;;;;;4969351;28;20406;-75
2023/03/19 00:15:00;;;;;;;7.38;2.70;;;6.60;99.90;;;;;;4970067;28;20498;-76
2023/03/19 00:17:26;;;;;;;2.80;1.70;;;6.70;99.90;;;;;;4972135;28;20033;-76
2023/03/19 00:19:52;;;;;;;5.10;1.70;;;;;;;;;;4976286;28;20475;-75
2023/03/19 00:22:18;;;;;;;4.90;2.15;;;;;;;;;;4975219;28;20018;-75
2023/03/19 00:24:43;;;;;;;2.85;1.40;;;;;;;;;;4975599;28;20467;-75
2023/03/19 00:27:09;;;;;;;6.03;1.90;;;;;;;;;;4971627;28;20038;-74
2023/03/19 00:29:36;;;;;;;4.13;1.58;;;;;;;;;;4973806;28;20031;-75
2023/03/19 00:32:02;;;;;;;3.42;2.00;;;6.80;99.90;;;;;;4972376;28;20379;-74
2023/03/19 00:34:28;;;;;;;2.28;1.55;;;;;;;;;;4971629;28;20058;-75
2023/03/19 00:36:55;;;;;;;4.45;1.95;;;;;;;;;;4976270;28;20058;-74
2023/03/19 00:39:21;;;;;;;9.60;1.70;;;;;;;;;;4977340;28;20084;-75
2023/03/19 00:41:49;;;;;;;5.18;2.03;;;;;;;;;;4975540;28;20027;-77
2023/03/19 00:44:16;;;;;;;5.90;2.42;;;;;;;;;;4978046;28;20118;-74
2023/03/19 00:46:41;;;;;;;9.43;2.42;;;;;;;;;;4974123;28;20030;-75
2023/03/19 00:49:07;;;;;;;22.08;5.43;;;;;;;;;;4971876;28;20056;-76
2023/03/19 00:51:33;;;;;;;21.35;4.22;;;;;;;;;;4974203;28;20090;-75
2023/03/19 00:53:59;;;;;;;8.07;2.42;;;;;;;;;;4972189;28;20070;-75
2023/03/19 00:56:25;;;;;;;4.20;1.70;;;;;;;;;;4978945;28;20092;-75
2023/03/19 00:58:51;;;;;;;7.40;2.28;;;;;;;;;;4973608;28;20038;-75
2023/03/19 01:01:18;;;;;;;5.70;1.77;;;;;;;;;;4973399;28;20031;-74
2023/03/19 01:03:46;;;;;;;4.43;2.03;;;;;;;;;;4968677;28;20029;-75
2023/03/19 01:06:12;;;;;;;9.82;2.10;;;5.90;99.90;;;;;;4971946;28;20415;-75
2023/03/19 01:08:38;;;;;;;7.10;2.00;;;;;;;;;;4975315;28;20038;-74
2023/03/19 01:11:05;;;;;;;4.63;1.77;;;;;;;;;;4972270;28;20629;-75
2023/03/19 01:13:31;;;;;;;3.72;1.67;;;;;;;;;;4974925;28;20034;-76
2023/03/19 01:15:57;;;;;;;3.47;1.98;;;;;;;;;;4972827;28;20045;-74
2023/03/19 01:18:23;;;;;;;6.88;2.30;;;;;;;;;;4975230;28;20402;-76
2023/03/19 01:20:49;;;;;;;5.45;1.75;;;;;;;;;;4969884;28;20066;-74
2023/03/19 01:23:15;;;;;;;3.72;1.85;;;;;;;;;;4972040;28;20088;-74
2023/03/19 01:25:40;;;;;;;3.28;1.67;;;6.70;99.90;;;;;;4974913;28;20019;-76
2023/03/19 01:28:06;;;;;;;6.13;2.42;;;;;;;;;;4977329;28;20037;-76
2023/03/19 01:30:32;;;;;;;4.90;1.65;;;;;;;;;;4977125;28;20719;-75
2023/03/19 01:32:58;;;;;;;6.72;1.83;;;;;;;;;;4971351;28;20040;-75
2023/03/19 01:35:24;;;;;;;5.15;1.83;;;;;;;;;;4975492;28;20525;-75
2023/03/19 01:37:51;;;;;;;4.85;1.63;;;;;;;;;;4979347;28;20806;-75
2023/03/19 01:40:17;;;;;;;2.92;1.25;;;;;;;;;;4978766;28;20022;-75
2023/03/19 01:42:53;;;;;;;5.47;1.50;;;;;;;;;;4972759;28;20031;-75
2023/03/19 01:45:29;;;;;;;3.50;1.90;;;;;;;;;;4973096;28;20042;-75
2023/03/19 01:47:56;;;;;;;4.68;2.03;;;;;;;;;;4979826;28;20026;-74
2023/03/19 01:50:31;;;;;;;3.30;1.55;;;;;;;;;;4977770;28;20022;-75
2023/03/19 01:52:57;;;;;;;5.00;2.03;;;;;;;;;;4974897;28;20054;-76
2023/03/19 01:55:24;;;;;;;7.10;1.90;;;;;;;;;;4977140;28;20123;-75
2023/03/19 01:57:50;;;;;;;2.75;0.93;;;;;;;;;;4977171;28;20045;-74
2023/03/19 02:00:16;;;;;;;2.72;0.95;;;;;;;;;;4971425;28;20030;-74
2023/03/19 02:02:43;;;;;;;3.53;1.70;;;;;;;;;;4965817;28;20032;-75
2023/03/19 02:05:11;;;;;;;4.30;1.65;;;;;;;;;;4976613;28;20050;-77
2023/03/19 02:07:38;;;;;;;4.68;1.95;;;;;;;;;;4974224;28;20035;-76
2023/03/19 02:10:07;;;;;;;5.13;1.73;;;;;;;;;;4979651;28;20681;-75
2023/03/19 02:12:33;;;;;;;7.05;1.48;;;;;;;;;;4980486;28;20041;-75
2023/03/19 02:14:59;;;;;;;3.50;2.08;;;;;;;;;;4972832;28;20058;-74
2023/03/19 02:17:25;;;;;;;4.43;1.52;;;;;;;;;;4972631;28;20482;-74
2023/03/19 02:20:00;;;;;;;2.10;1.20;;;;;;;;;;4975410;28;20491;-75
2023/03/19 02:22:28;;;;;;;9.82;1.88;;;;;;;;;;4978618;28;20030;-75
2023/03/19 02:25:10;;;;;;;2.55;1.27;;;;;;;;;;4977444;28;20038;-75
2023/03/19 02:27:36;;;;;;;4.13;1.63;;;;;;;;;;4972068;28;20030;-75
2023/03/19 02:30:21;;;;;;;4.55;1.67;;;;;;;;;;4971163;28;20039;-77
2023/03/19 02:32:47;;;;;;;3.67;1.45;;;;;;;;;;4971716;28;20042;-76
2023/03/19 02:35:13;;;;;;;5.30;1.73;;;;;;;;;;4979590;28;20137;-75
2023/03/19 02:37:39;;;;;;;4.20;1.75;;;;;;;;;;4973918;28;20031;-76
2023/03/19 02:40:18;;;;;;;5.10;1.33;;;7.10;99.90;;;;;;4980333;28;20038;-76
2023/03/19 02:42:44;;;;;;;9.15;3.20;;;;;;;;;;4972628;28;20181;-74
2023/03/19 02:45:10;;;;;;;6.55;2.85;;;;;;;;;;4972706;28;20172;-74
2023/03/19 02:47:36;;;;;;;10.57;3.20;;;;;;;;;;4979960;28;20042;-78
2023/03/19 02:50:02;;;;;;;4.95;2.20;;;;;;;;;;4974009;28;20050;-74
2023/03/19 02:52:28;;;;;;;3.33;2.03;;;;;;;;;;4978144;28;20034;-75
2023/03/19 02:54:54;;;;;;;2.42;1.60;;;;;;;;;;4982273;28;20034;-77
2023/03/19 02:57:20;;;;;;;4.72;2.33;;;7.00;99.90;;;;;;4973172;28;20039;-75
2023/03/19 02:59:46;;;;;;;3.47;1.67;;;;;;;;;;4972058;28;20040;-75
2023/03/19 03:02:12;;;;;;;4.20;2.28;;;;;;;;;;4972390;28;20049;-75
2023/03/19 03:04:38;;;;;;;4.85;2.28;;;;;;;;;;4975795;28;20149;-75
2023/03/19 03:07:05;;;;;;;3.55;1.77;;;;;;;;;;4979863;28;20178;-76
2023/03/19 03:09:30;;;;;;;2.80;1.73;;;6.40;99.90;;;;;;4975039;28;20484;-76
2023/03/19 03:11:56;;;;;;;3.70;1.52;;;;;;;;;;4970212;28;20181;-76
2023/03/19 03:14:23;;;;;;;8.35;2.15;;;;;;;;;;4980076;28;20486;-77
2023/03/19 03:16:49;;;;;;;3.90;1.60;;;;;;;;;;4975269;28;20428;-77
2023/03/19 03:19:15;;;;;;;2.17;1.65;;;;;;;;;;4976826;28;20622;-75
2023/03/19 03:21:41;;;;;;;3.55;1.77;;;;;;;;;;4978304;28;20030;-76
2023/03/19 03:24:08;;;;;;;4.82;2.30;;;;;;;;;;4978351;28;22599;-78
2023/03/19 03:26:37;;;;;;;6.22;3.03;;;7.00;99.90;;;;;;4982632;28;20037;-75
2023/03/19 03:29:03;;;;;;;2.60;1.45;;;;;;;;;;4981986;28;20034;-75
2023/03/19 03:31:29;;;;;;;3.85;1.60;;;;;;;;;;4974388;28;20026;-75
2023/03/19 03:33:55;;;;;;;4.88;1.52;;;;;;;;;;4972146;28;20072;-75
2023/03/19 03:36:22;;;;;;;3.92;1.83;;;;;;;;;;4972809;28;20029;-76
2023/03/19 03:38:48;;;;;;;10.23;2.38;;;;;;;;;;4976246;28;20122;-74
2023/03/19 03:41:14;;;;;;;4.40;1.92;;;;;;;;;;4973644;28;20071;-75
2023/03/19 03:43:40;;;;;;;4.82;1.27;;;;;;;;;;4975078;28;20035;-76
2023/03/19 03:46:07;;;;;;;4.28;1.70;;;;;;;;;;4969655;28;20038;-75
2023/03/19 03:48:33;;;;;;;4.18;2.00;;;7.10;99.90;;;;;;4974882;28;20375;-75
2023/03/19 03:50:59;;;;;;;4.13;1.77;;;;;;;;;;4974314;28;20057;-76
2023/03/19 03:53:25;;;;;;;3.85;1.98;;;;;;;;;;4971750;28;20030;-75
2023/03/19 03:55:51;;;;;;;7.78;2.83;;;;;;;;;;4971421;28;20085;-78
2023/03/19 03:58:17;;;;;;;6.03;1.95;;;;;;;;;;4975736;28;20122;-77
2023/03/19 04:00:43;;;;;;;3.05;1.63;;;;;;;;;;4976128;28;20502;-75
2023/03/19 04:03:09;;;;;;;3.17;1.70;;;;;;;;;;4973993;28;20034;-75
2023/03/19 04:05:36;;;;;;;4.75;1.63;;;;;;;;;;4970981;28;20036;-74
2023/03/19 04:08:02;;;;;;;8.60;2.10;;;;;;;;;;4979218;28;20038;-76
2023/03/19 04:10:29;;;;;;;3.33;1.92;;;;;;;;;;4969582;28;20037;-74
2023/03/19 04:12:55;;;;;;;5.38;2.00;;;;;;;;;;4975839;28;20022;-75
2023/03/19 04:15:21;;;;;;;7.15;2.35;;;;;;;;;;4973461;28;20687;-77
2023/03/19 04:17:47;;;;;;;2.38;1.48;;;;;;;;;;4978926;28;20026;-76
2023/03/19 04:20:16;;;;;;;3.15;2.03;;;;;;;;;;4973538;28;20543;-75
2023/03/19 04:22:42;;;;;;;3.40;1.55;;;;;;;;;;4965066;28;20023;-74
2023/03/19 04:25:09;;;;;;;4.53;1.70;;;;;;;;;;4975478;28;20109;-74
2023/03/19 04:27:35;;;;;;;5.10;2.42;;;;;;;;;;4974459;28;20054;-74
2023/03/19 04:30:01;;;;;;;3.50;1.77;;;;;;;;;;4974329;28;20053;-75
2023/03/19 04:32:27;;;;;;;5.38;2.28;;;;;;;;;;4970479;28;20507;-75
2023/03/19 04:34:53;;;;;;;4.38;2.28;;;;;;;;;;4975806;28;20049;-75
2023/03/19 04:37:19;;;;;;;4.97;2.03;;;;;;;;;;4976111;28;20054;-74
2023/03/19 04:39:45;;;;;;;4.22;2.22;;;;;;;;;;4970030;28;20487;-75
2023/03/19 04:42:11;;;;;;;7.03;2.30;;;;;;;;;;4971411;28;20707;-74
2023/03/19 04:44:37;;;;;;;10.40;2.08;;;;;;;;;;4976870;28;20121;-74
2023/03/19 04:47:04;;;;;;;3.92;2.10;;;;;;;;;;4978112;28;20113;-75
2023/03/19 04:49:30;;;;;;;5.45;2.22;;;;;;;;;;4969334;28;20735;-75
2023/03/19 04:51:56;;;;;;;6.00;1.75;;;;;;;;;;4976352;28;20185;-74
2023/03/19 04:54:23;;;;;;;3.33;1.77;;;;;;;;;;4972156;28;20044;-75
2023/03/19 04:56:49;;;;;;;11.75;2.78;;;;;;;;;;4973589;28;20482;-74
2023/03/19 04:59:15;;;;;;;4.20;2.03;;;;;;;;;;4973266;28;20033;-75
2023/03/19 05:01:41;;;;;;;5.00;2.25;;;;;;;;;;4968859;28;20030;-75
2023/03/19 05:04:07;;;;;;;5.72;2.15;;;;;;;;;;4971335;28;20058;-75
2023/03/19 05:06:33;;;;;;;8.73;2.75;;;;;;;;;;4976205;28;20069;-74
2023/03/19 05:08:59;;;;;;;5.22;2.15;;;;;;;;;;4982804;28;20039;-74
2023/03/19 05:11:25;;;;;;;6.85;2.83;;;;;;;;;;4976720;28;20057;-75
2023/03/19 05:13:51;;;;;;;4.32;2.35;;;;;;;;;;4981412;28;20089;-75
2023/03/19 05:16:17;;;;;;;6.45;2.22;;;;;;;;;;4976301;28;20030;-75
2023/03/19 05:18:43;;;;;;;5.03;2.45;;;;;;;;;;4979784;28;20038;-74
2023/03/19 05:21:11;;;;;;;6.45;2.58;;;;;;;;;;4972651;28;20730;-74
2023/03/19 05:23:37;;;;;;;8.15;2.50;;;;;;;;;;4976301;28;20389;-75
2023/03/19 05:26:03;;;;;;;3.92;2.00;;;;;;;;;;4983088;28;20030;-75
2023/03/19 05:28:29;;;;;;;3.65;2.33;;;;;;;;;;4979028;28;20034;-76
2023/03/19 05:30:55;;;;;;;5.68;2.50;;;;;;;;;;4980840;28;20026;-75
2023/03/19 05:33:21;;;;;;;7.80;3.30;;;;;;;;;;4982481;28;20029;-76
2023/03/19 05:35:47;;;;;;;12.88;3.47;;;;;;;;;;4980056;28;20046;-76
2023/03/19 05:38:13;;;;;;;4.72;2.60;;;;;;;;;;4982354;28;20057;-75
2023/03/19 05:40:41;;;;;;;3.30;2.55;;;;;;;;;;4978044;28;20031;-76
2023/03/19 05:43:08;;;;;;;4.43;3.10;;;;;;;;;;4983329;28;20023;-74
2023/03/19 05:45:34;;;;;;;5.72;2.38;;;;;;;;;;4975138;28;20878;-74
2023/03/19 05:48:00;;;;;;;7.65;3.30;;;;;;;;;;4981193;28;20034;-78
2023/03/19 05:50:26;;;;;;;5.32;3.10;;;;;;;;;;4982284;28;20027;-78
2023/03/19 05:52:52;;;;;;;5.63;2.45;;;;;;;;;;4978934;28;20031;-76
2023/03/19 05:55:18;;;;;;;8.80;3.10;;;;;;;;;;4976351;28;20406;-76
2023/03/19 05:57:44;;;;;;;3.72;2.67;;;;;;;;;;4976754;28;20054;-76
2023/03/19 06:00:11;;;;;;;5.65;2.50;;;;;;;;;;4981636;28;20505;-76
2023/03/19 06:02:37;;;;;;;12.85;2.22;;;8.00;99.90;;;;;;4987942;28;20105;-74
2023/03/19 06:05:03;;;;;;;9.70;2.92;;;;;;;;;;4977917;28;20041;-76
2023/03/19 06:07:30;;;;;;;4.95;2.80;;;;;;;;;;4976090;28;20030;-75
2023/03/19 06:09:56;;;;;;;5.05;2.97;;;;;;;;;;4978719;28;20027;-75
2023/03/19 06:12:22;;;;;;;4.28;2.97;;;;;;;;;;4976018;28;20029;-76
2023/03/19 06:14:48;;;;;;;8.13;3.40;;;;;;;;;;4973705;28;20051;-75
2023/03/19 06:17:14;;;;;;;4.47;2.55;;;8.10;99.90;;;;;;4972807;28;20034;-78
2023/03/19 06:19:41;;;;;;;4.60;2.03;;;;;;;;;;4977869;28;20125;-76
2023/03/19 06:22:07;;;;;;;5.35;3.00;;;;;;;;;;4971749;28;20077;-78
2023/03/19 06:24:33;;;;;;;6.07;2.95;;;;;;;;;;4972148;28;20054;-76
2023/03/19 06:26:59;;;;;;;8.38;3.00;;;;;;;;;;4968220;28;20035;-76
2023/03/19 06:29:25;;;;;;;5.25;2.72;;;8.40;99.90;;;;;;4971231;28;20027;-75
2023/03/19 06:31:51;;;;;;;11.20;5.40;;;;;;;;;;4967701;28;20045;-76
2023/03/19 06:34:17;;;;;;;31.88;12.63;;;;;;;;;;4970707;28;22022;-79
2023/03/19 06:36:43;;;;;;;13.73;6.32;;;;;;;;;;4974766;28;20038;-80
2023/03/19 06:39:10;;;;;;;12.02;6.35;;;;;;;;;;4977846;28;20038;-77
2023/03/19 06:41:36;;;;;;;7.53;4.63;;;;;;;;;;4979269;28;20034;-79
2023/03/19 06:44:02;;;;;;;7.47;3.80;;;;;;;;;;4973594;28;20030;-77
2023/03/19 06:46:28;;;;;;;21.42;8.90;;;;;;;;;;4977593;28;20118;-75
2023/03/19 06:48:54;;;;;;;15.68;7.50;;;8.40;99.90;;;;;;4971736;28;20023;-76
2023/03/19 06:51:20;;;;;;;9.73;5.10;;;;;;;;;;4972177;28;20026;-78
2023/03/19 06:53:46;;;;;;;9.48;3.85;;;;;;;;;;4964010;28;20126;-77
2023/03/19 06:56:12;;;;;;;12.40;4.60;;;;;;;;;;4976550;28;20034;-84
2023/03/19 06:58:38;;;;;;;11.48;5.18;;;;;;;;;;4974573;28;20023;-79
2023/03/19 07:01:04;;;;;;;16.52;6.47;;;;;;;;;;4977107;28;20375;-77
2023/03/19 07:03:31;;;;;;;9.57;5.43;;;;;;;;;;4975628;28;20030;-77
2023/03/19 07:05:57;;;;;;;9.02;3.85;;;;;;;;;;4975748;28;20046;-76
2023/03/19 07:08:22;;;;;;;6.40;2.42;;;;;;;;;;4970904;28;20030;-75
2023/03/19 07:10:48;;;;;;;4.57;2.90;;;;;;;;;;4973999;28;20379;-75
2023/03/19 07:13:16;;;;;;;8.85;2.88;;;;;;;;;;4976435;28;20030;-81
2023/03/19 07:15:42;;;;;;;4.47;2.50;;;;;;;;;;4979745;28;20069;-76
2023/03/19 07:18:08;;;;;;;6.35;3.10;;;;;;;;;;4980443;28;23202;-76
2023/03/19 07:20:34;;;;;;;8.93;2.95;;;;;;;;;;4974467;28;20365;-78
2023/03/19 07:23:00;;;;;;;7.22;3.10;;;;;;;;;;4975946;28;20034;-78
2023/03/19 07:25:25;;;;;;;4.20;2.67;;;;;;;;;;4978192;28;20471;-82
2023/03/19 07:27:51;;;;;;;5.88;3.05;;;;;;;;;;4978091;28;20034;-79
2023/03/19 07:30:18;;;;;;;11.27;2.80;;;;;;;;;;4976836;28;20148;-80
2023/03/19 07:32:43;;;;;;;5.55;2.58;;;;;;;;;;4982116;28;20031;-81
2023/03/19 07:35:13;;;;;;;5.38;2.53;;;;;;;;;;4974991;28;20114;-80
2023/03/19 07:37:39;;;;;;;4.82;3.70;;;;;;;;;;4978437;28;20050;-80
2023/03/19 07:40:06;;;;;;;8.15;3.03;;;8.90;99.90;;;;;;4975205;28;20038;-81
2023/03/19 07:42:35;;;;;;;5.32;2.58;;;;;;;;;;4973391;28;20031;-80
2023/03/19 07:45:01;;;;;;;3.97;2.28;;;;;;;;;;4973855;28;20569;-81
2023/03/19 07:47:27;;;;;;;6.53;3.40;;;;;;;;;;4974201;28;20109;-77
2023/03/19 07:49:53;;;;;;;6.10;2.47;;;;;;;;;;4973228;28;20148;-77
2023/03/19 07:52:19;;;;;;;6.97;3.38;;;;;;;;;;4972874;28;20739;-77
2023/03/19 07:54:45;;;;;;;4.63;2.63;;;;;;;;;;4982894;28;20135;-80
2023/03/19 07:57:11;;;;;;;4.13;2.22;;;;;;;;;;4972836;28;20161;-81
2023/03/19 07:59:37;;;;;;;4.18;1.95;;;;;;;;;;4973441;28;20053;-82
2023/03/19 08:02:03;;;;;;;3.22;2.30;;;;;;;;;;4978051;28;20062;-83
2023/03/19 08:04:29;;;;;;;5.78;2.17;;;;;;;;;;4984885;28;20117;-83
2023/03/19 08:06:54;;;;;;;4.05;1.73;;;11.80;99.90;;;;;;4975182;28;20510;-83
2023/03/19 08:09:21;;;;;;;2.63;1.67;;;;;;;;;;4977867;28;20037;-83
2023/03/19 08:11:46;;;;;;;4.13;1.90;;;;;;;;;;4971614;28;21113;-82
2023/03/19 08:14:12;;;;;;;4.93;1.42;;;;;;;;;;4980401;28;20038;-76
2023/03/19 08:16:38;;;;;;;2.13;1.15;;;;;;;;;;4976166;28;20029;-78
2023/03/19 08:19:04;;;;;;;2.70;1.38;;;;;;;;;;4972100;28;20034;-80
2023/03/19 08:21:32;;;;;;;3.00;1.00;;;;;;;;;;4976699;28;20150;-80
2023/03/19 08:23:58;;;;;;;1.85;1.40;;;;;;;;;;4979635;28;20147;-79
2023/03/19 08:26:24;;;;;;;3.65;1.92;;;;;;;;;;4978408;28;20121;-82
2023/03/19 08:28:51;;;;;;;3.40;1.65;;;;;;;;;;4972423;28;20030;-79
2023/03/19 08:31:17;;;;;;;2.45;0.98;;;;;;;;;;4980302;28;20043;-83
2023/03/19 08:33:43;;;;;;;2.22;1.40;;;;;;;;;;4975359;28;20041;-82
2023/03/19 08:36:10;;;;;;;2.30;1.00;;;;;;;;;;4974265;28;20042;-78
2023/03/19 08:38:36;;;;;;;1.67;0.82;;;;;;;;;;4975454;28;20042;-79
2023/03/19 08:41:03;;;;;;;2.63;0.85;;;;;;;;;;4967666;28;20034;-78
2023/03/19 08:43:30;;;;;;;1.75;0.90;;;13.00;99.90;;;;;;4974144;28;20035;-82
2023/03/19 08:45:56;;;;;;;1.38;0.90;;;;;;;;;;4986873;28;20034;-81
2023/03/19 08:48:22;;;;;;;4.00;1.00;;;12.70;99.90;;;;;;4989367;28;20034;-83
2023/03/19 08:50:53;;;;;;;2.35;0.80;;;11.10;99.90;;;;;;4986977;28;20036;-80
2023/03/19 08:53:19;;;;;;;3.28;1.30;;;;;;;;;;4987459;28;20066;-82
2023/03/19 08:55:45;;;;;;;1.73;0.88;;;;;;;;;;4987297;28;20042;-83
2023/03/19 08:58:11;;;;;;;2.45;0.77;;;;;;;;;;4989581;28;20037;-82
2023/03/19 09:00:37;;;;;;;2.58;0.88;;;;;;;;;;4985159;28;20069;-84
2023/03/19 09:03:03;;;;;;;1.88;1.02;;;;;;;;;;4993234;28;20030;-84
2023/03/19 09:05:29;;;;;;;2.33;0.90;;;;;;;;;;4982483;28;20038;-83
2023/03/19 09:07:55;;;;;;;2.72;1.02;;;;;;;;;;4982670;28;20038;-81
2023/03/19 09:10:21;;;;;;;4.78;0.70;;;;;;;;;;4988346;28;20018;-82
2023/03/19 09:12:46;;;;;;;3.83;1.30;;;14.00;99.90;;;;;;4984411;28;20426;-83
2023/03/19 09:15:12;;;;;;;2.80;0.95;;;14.10;99.90;;;;;;4981324;28;20344;-80
2023/03/19 09:17:38;;;;;;;0.98;0.70;;;;;;;;;;4980800;28;20031;-80
2023/03/19 09:20:06;;;;;;;2.75;0.95;;;;;;;;;;4986850;28;20148;-80
2023/03/19 09:22:32;;;;;;;1.85;0.98;;;;;;;;;;4982391;28;20157;-84
2023/03/19 09:24:58;;;;;;;2.25;0.88;;;;;;;;;;4988319;28;20027;-83
2023/03/19 09:27:24;;;;;;;4.47;0.90;;;;;;;;;;4990676;28;20459;-80
2023/03/19 09:29:50;;;;;;;3.67;1.25;;;;;;;;;;4980835;28;20403;-82
2023/03/19 09:32:16;;;;;;;2.10;0.70;;;;;;;;;;4987547;28;20045;-80
2023/03/19 09:34:42;;;;;;;3.45;1.05;;;;;;;;;;4984013;28;20177;-83
2023/03/19 09:37:10;;;;;;;3.72;1.00;;;;;;;;;;4976750;28;20026;-82
2023/03/19 09:39:36;;;;;;;6.43;2.38;;;;;;;;;;4983376;28;20034;-79
2023/03/19 09:42:11;;;;;;;4.30;0.80;;;;;;;;;;4991125;28;20348;-82
2023/03/19 09:44:40;;;;;;;5.72;2.33;;;;;;;;;;4986884;28;20144;-81
2023/03/19 09:47:06;;;;;;;3.30;0.80;;;;;;;;;;4982442;28;20042;-81
2023/03/19 09:49:35;;;;;;;4.38;1.17;;;;;;;;;;4984095;28;20113;-82
2023/03/19 09:52:06;;;;;;;1.38;0.68;;;;;;;;;;4987260;28;20034;-83
2023/03/19 09:54:36;;;;;;;3.25;0.95;;;14.20;99.90;;;;;;4987364;28;20450;-82
2023/03/19 09:57:02;;;;;;;3.83;0.70;;;;;;;;;;4981780;28;20606;-83
2023/03/19 09:59:29;;;;;;;1.80;0.60;;;14.50;99.90;;;;;;4987956;28;20049;-80
2023/03/19 10:02:13;;;;;;;3.53;0.68;;;15.40;99.90;;;;;;4982760;28;20034;-82
2023/03/19 10:04:42;;;;;;;3.30;0.80;;;;;;;;;;4984291;28;20058;-81
2023/03/19 10:07:17;;;;;;;2.10;0.65;;;;;;;;;;4986461;28;20042;-80
2023/03/19 10:10:00;;;;;;;4.82;1.23;;;15.70;99.90;;;;;;4981342;28;20384;-81
2023/03/19 10:13:00;;;;;;;2.30;1.02;;;15.50;99.90;;;;;;4985181;28;20031;-81
2023/03/19 10:15:31;;;;;;;2.90;0.73;;;15.00;99.90;;;;;;4987264;28;20046;-81
2023/03/19 10:18:08;;;;;;;3.67;0.60;;;15.80;99.90;;;;;;4978429;28;20027;-81
2023/03/19 10:20:37;;;;;;;2.50;0.88;;;16.80;99.90;;;;;;4982011;28;20471;-82
2023/03/19 10:23:22;;;;;;;1.58;0.65;;;16.40;99.90;;;;;;4986201;28;20097;-82
2023/03/19 10:25:52;;;;;;;2.75;1.15;;;16.40;99.90;;;;;;4979037;28;21997;-80
2023/03/19 10:28:20;;;;;;;0.57;0.50;;;16.20;99.90;;;;;;4974291;28;20039;-79
2023/03/19 10:30:50;;;;;;;2.30;0.82;;;;;;;;;;4973369;28;20037;-79
2023/03/19 10:33:22;;;;;;;0.82;0.63;;;16.30;99.90;;;;;;4976839;28;20034;-81
2023/03/19 10:35:56;;;;;;;6.43;3.17;;;15.70;99.90;;;;;;4980808;28;20705;-81
2023/03/19 10:38:23;;;;;;;3.50;1.20;;;;;;;;;;4975102;28;20038;-81
2023/03/19 10:41:09;;;;;;;1.40;0.80;;;15.50;99.90;;;;;;4965339;28;20066;-79
2023/03/19 10:43:36;;;;;;;2.53;1.13;;;;;;;;;;4982425;28;20030;-81
2023/03/19 10:46:02;;;;;;;1.60;0.43;;;;;;;;;;4985733;28;20042;-77
2023/03/19 10:48:29;;;;;;;0.98;0.43;;;;;;;;;;4988422;28;20030;-80
2023/03/19 10:51:00;;;;;;;1.27;0.50;;;;;;;;;;4977405;28;20058;-80
2023/03/19 10:53:36;;;;;;;3.47;0.80;;;;;;;;;;4982313;28;20023;-79
2023/03/19 10:56:06;;;;;;;3.20;1.02;;;15.40;99.90;;;;;;4981648;28;20175;-81
2023/03/19 10:58:34;;;;;;;4.35;0.90;;;;;;;;;;4981581;28;20097;-79
2023/03/19 11:01:08;;;;;;;1.75;0.75;;;15.60;99.90;;;;;;4980983;28;20268;-78
2023/03/19 11:03:34;;;;;;;0.80;0.73;;;;;;;;;;4981514;28;20178;-80
2023/03/19 11:06:06;;;;;;;1.67;0.52;;;16.50;99.90;;;;;;4983073;28;20037;-82
2023/03/19 11:08:36;;;;;;;1.70;0.70;;;16.40;99.90;;;;;;5001268;28;20031;-81
2023/03/19 11:11:02;;;;;;;1.05;0.30;;;;;;;;;;4985210;28;20022;-81
2023/03/19 11:13:28;;;;;;;3.50;0.75;;;;;;;;;;4984600;28;20080;-81
2023/03/19 11:15:59;;;;;;;1.58;0.65;;;16.10;99.90;;;;;;4992542;28;20064;-80
2023/03/19 11:18:36;;;;;;;1.55;0.57;;;;;;;;;;4998291;28;20611;-83
2023/03/19 11:21:37;;;;;;;2.80;0.60;;;16.60;99.90;;;;;;4985017;28;20039;-81
2023/03/19 11:24:10;;;;;;;0.98;0.30;;;16.50;99.90;;;;;;4987578;28;20030;-82
2023/03/19 11:26:36;;;;;;;1.15;0.43;;;;;;;;;;5004795;28;20022;-79
2023/03/19 11:29:03;;;;;;;1.17;0.57;;;16.70;99.90;;;;;;5008003;28;20044;-79
2023/03/19 11:31:47;;;;;;;1.85;0.60;;;16.70;99.90;;;;;;4999355;28;20027;-80
2023/03/19 11:34:25;;;;;;;1.02;0.50;;;16.50;99.90;;;;;;4992511;28;20115;-80
2023/03/19 11:36:50;;;;;;;1.40;0.40;;;16.40;99.90;;;;;;4980597;28;20110;-83
2023/03/19 11:39:16;;;;;;;0.77;0.30;;;;;;;;;;4986247;28;20471;-81
2023/03/19 11:42:14;;;;;;;2.25;0.57;;;16.70;99.90;;;;;;4989688;28;20022;-83
2023/03/19 11:45:04;;;;;;;2.13;0.50;;;17.20;99.90;;;;;;4987184;28;20027;-80
2023/03/19 11:47:36;;;;;;;2.20;0.60;;;;;;;;;;4995415;28;20076;-81
2023/03/19 11:50:32;;;;;;;2.13;0.53;;;17.40;99.90;;;;;;4979294;28;20027;-81
2023/03/19 11:53:02;;;;;;;3.67;0.85;;;;;;;;;;4989537;28;20293;-82
2023/03/19 11:56:01;;;;;;;0.77;0.50;;;17.00;99.90;;;;;;4985735;28;20035;-79
2023/03/19 11:58:34;;;;;;;2.65;1.00;;;17.10;99.90;;;;;;4985904;28;20462;-82
2023/03/19 12:01:33;;;;;;;1.33;0.40;;;17.30;99.90;;;;;;4982909;28;20050;-80
2023/03/19 12:04:23;;;;;;;0.88;0.40;;;17.60;99.60;;;;;;4989549;28;20031;-81
2023/03/19 12:07:08;;;;;;;1.45;0.80;;;17.70;99.90;;;;;;4982591;28;20073;-80
2023/03/19 12:09:51;;;;;;;1.77;0.50;;;17.60;99.20;;;;;;4981523;28;20578;-82
2023/03/19 12:12:29;;;;;;;0.43;0.30;;;17.80;99.80;;;;;;4978778;28;20041;-80
2023/03/19 12:15:01;;;;;;;5.20;1.10;;;17.10;99.90;;;;;;4991156;28;20085;-81
2023/03/19 12:17:45;;;;;;;1.27;0.57;;;17.50;99.80;;;;;;4986423;28;20038;-81
2023/03/19 12:20:26;;;;;;;0.57;0.45;;;17.40;99.10;;;;;;4987158;28;20037;-79
2023/03/19 12:23:10;;;;;;;0.88;0.40;;;17.80;98.40;;;;;;4996369;28;20069;-79
2023/03/19 12:25:36;;;;;;;2.47;0.70;;;;;;;;;;4991017;28;20500;-81
2023/03/19 12:28:26;;;;;;;3.22;0.57;;;17.40;98.00;;;;;;4975274;28;20031;-79
2023/03/19 12:31:26;;;;;;;2.00;0.60;;;17.70;98.40;;;;;;4982789;28;20034;-80
2023/03/19 12:34:20;;;;;;;1.55;0.52;;;17.10;97.40;;;;;;4979031;28;20086;-80
2023/03/19 12:36:54;;;;;;;2.08;0.40;;;18.00;99.40;;;;;;4985128;28;20041;-81
2023/03/19 12:39:28;;;;;;;1.38;0.40;;;17.30;98.00;;;;;;4981221;28;20065;-79
2023/03/19 12:41:57;;;;;;;1.90;0.68;;;17.20;97.60;;;;;;4976560;28;20074;-81
2023/03/19 12:44:27;;;;;;;0.85;0.47;;;17.20;96.60;;;;;;4977301;28;20153;-80
2023/03/19 12:47:15;;;;;;;0.73;0.38;;;17.90;96.00;;;;;;4983362;28;20546;-81
2023/03/19 12:49:54;;;;;;;3.38;0.60;;;;;;;;;;4977695;28;20493;-81
2023/03/19 12:52:23;;;;;;;1.13;0.47;;;;;;;;;;4982775;28;20398;-81
2023/03/19 12:55:07;;;;;;;0.80;0.50;;;18.20;94.60;;;;;;4984538;28;20046;-81
2023/03/19 12:57:48;;;;;;;2.95;0.60;;;18.30;94.80;;;;;;4985701;28;20027;-81
2023/03/19 13:00:34;;;;;;;2.28;0.80;;;18.30;93.40;;;;;;4973359;28;20027;-81
2023/03/19 13:03:11;;;;;;;2.08;0.47;;;17.90;94.90;;;;;;4983292;28;20418;-80
2023/03/19 13:06:00;;;;;;;0.47;0.22;;;17.70;94.70;;;;;;4982635;28;20027;-79
2023/03/19 13:08:35;;;;;;;1.50;0.45;;;17.90;95.00;;;;;;4980290;28;20030;-78
2023/03/19 13:11:07;;;;;;;0.75;0.20;;;17.80;94.60;;;;;;4983445;28;20110;-82
2023/03/19 13:13:45;;;;;;;4.13;0.73;;;22.30;97.10;;;;;;4982562;28;20026;-81
2023/03/19 13:16:30;;;;;;;3.15;0.50;;;;;;;;;;4976812;28;20042;-80
2023/03/19 13:19:34;;;;;;;1.17;0.47;;;17.90;94.20;;;;;;4989869;28;20545;-81
2023/03/19 13:22:05;;;;;;;1.88;0.55;;;17.80;93.30;;;;;;4980383;28;20035;-82
2023/03/19 13:24:38;;;;;;;1.73;0.50;;;18.00;92.80;;;;;;4983238;28;20273;-80
2023/03/19 13:27:06;;;;;;;1.95;0.52;;;;;;;;;;4979516;28;20034;-81
2023/03/19 13:29:35;;;;;;;1.48;0.75;;;18.70;93.70;;;;;;4980504;28;20022;-80
2023/03/19 13:32:04;;;;;;;0.95;0.20;;;;;;;;;;4979287;28;20553;-78
2023/03/19 13:34:34;;;;;;;1.55;0.32;;;;;;;;;;4982313;28;20111;-77
2023/03/19 13:37:09;;;;;;;3.95;0.55;;;19.00;93.20;;;;;;4996088;28;20501;-82
2023/03/19 13:39:36;;;;;;;2.97;0.50;;;;;;;;;;4993472;28;20462;-79
2023/03/19 13:42:37;;;;;;;2.03;0.63;;;18.70;90.60;;;;;;4984059;28;20117;-83
2023/03/19 13:45:33;;;;;;;3.97;0.70;;;19.00;92.20;;;;;;4990833;28;20050;-80
2023/03/19 13:48:24;;;;;;;0.65;0.30;;;18.00;91.10;;;;;;4988465;28;20113;-82
2023/03/19 13:51:22;;;;;;;2.60;0.55;;;18.30;90.30;;;;;;4981358;28;20025;-82
2023/03/19 13:54:22;;;;;;;2.88;0.82;;;18.30;91.60;;;;;;4990671;28;20044;-80
2023/03/19 13:57:00;;;;;;;2.15;1.10;;;18.30;89.50;;;;;;4964053;28;20714;-78
2023/03/19 13:59:26;;;;;;;2.22;1.17;;;;;;;;;;4973728;28;20027;-75
2023/03/19 14:01:52;;;;;;;3.42;0.90;;;;;;;;;;4975986;28;20137;-77
2023/03/19 14:04:33;;;;;;;2.70;0.80;;;18.50;89.70;;;;;;4978900;28;20030;-75
2023/03/19 14:07:16;;;;;;;2.53;0.82;;;18.30;90.10;;;;;;4975323;28;20046;-76
2023/03/19 14:09:51;;;;;;;2.90;0.65;;;;;;;;;;4963743;28;20058;-77
2023/03/19 14:12:17;;;;;;;6.57;2.45;;;;;;;;;;4975310;28;20533;-76
2023/03/19 14:14:49;;;;;;;5.22;1.45;;;;;;;;;;4973829;28;20098;-77
2023/03/19 14:17:18;;;;;;;1.30;0.63;;;;;;;;;;4975140;28;20482;-75
2023/03/19 14:19:44;;;;;;;2.67;0.73;;;;;;;;;;4970219;28;20298;-75
2023/03/19 14:22:20;;;;;;;7.30;2.17;;;18.80;89.90;;;;;;4977460;28;20038;-78